Domov               UVHVVR             MKGP            O straneh              
ZDRAVSTVENO VARSTVO RASTLIN
  MREŽA AGROMET. POSTAJ
 ► PROGNOSTIČNA OBVESTILA
AGROMETEOROLOŠKI PODATKI -
ARSO
OBVLADOVANJE TVEGANJ ZARADI
NEUGODNIH VREMENSKIH RAZMER
  ► NARAVNE NESREČE
  ► SUŠA/MOČA
  ► NAMAKANJE
  ► ŽLED (gozdarstvo)
KARTOGRAFSKI PRIKAZI
SPLETNE POVEZAVE
PROJEKTI IN PUBLIKACIJE

AGROMETEOROLOŠKA MREŽA: VREMENSKE POSTAJE IN FENOLOŠKA OPAZOVANJA

Pregled podatkov za lokacijo Kasaze (Mirosan), meteorološka postaja 27394

Pregled senzorjev na lokaciji

ID Ime Zadnja
vrednost
Datum
zadnje
spremembe
Tip
senzorja
521 Temperatura 2 m ( °C) 15,58 °C 24.10.2017 11:00 Generic -40 - +60 °C
522 Relativna vlaga 2 m (% RH) 49,5 % RH 24.10.2017 11:00 Generic 0 - 100 %
546 Omočenost lista (U) 0 U 24.10.2017 11:00 A730WET
4028 Padavine 0.2 mm (mm) 0 mm 24.10.2017 11:00 Generic 0.2 mm

Pregled podatkov zadnjih 24 ur

Zap.
št.
Datum in čas Kasaze (Mirosan)
Omočenost
lista
Padavine
0.2
mm
Relativna
vlaga
2
m
Temperatura
2
m
0 24.10.2017 10:00 0 0 49,5 15,58
1 24.10.2017 09:30 0 0 54,31 13,7
2 24.10.2017 09:00 0 0 62 12,01
3 24.10.2017 08:30 0 0 64,13 10,92
4 24.10.2017 08:00 0 0 66,84 8,47
5 24.10.2017 07:30 0 0 79,44 5,71
6 24.10.2017 07:00 0 0 81,59 7,45
7 24.10.2017 06:30 0 0 63,37 10,04
8 24.10.2017 06:00 0 0 57,78 10,72
9 24.10.2017 05:30 0 0 57,61 10,53
10 24.10.2017 05:00 0 0 59,07 10,65
11 24.10.2017 04:30 0 0 56,68 10,74
12 24.10.2017 04:00 0 0 58,17 10,72
13 24.10.2017 03:30 0 0 55,8 10,79
14 24.10.2017 03:00 0 0 57,14 10,53
15 24.10.2017 02:30 0 0 59,63 9,84
16 24.10.2017 02:00 0 0 61,07 9,79
17 24.10.2017 01:30 0 0 58,93 9,84
18 24.10.2017 01:00 0 0 60,71 10,16
19 24.10.2017 00:30 0 0 59,15 10,77
20 24.10.2017 00:00 0 0 54,85 10,99
21 23.10.2017 23:30 0 0 56 11,01
22 23.10.2017 23:00 0 0 55,04 11,26
23 23.10.2017 22:30 0 0 53,65 11,38
24 23.10.2017 22:00 0 0 54,09 11,33
25 23.10.2017 21:30 0 0 53,48 11,26
26 23.10.2017 21:00 0 0 54,77 11,36
27 23.10.2017 20:30 0 0 54,51 11,31
28 23.10.2017 20:00 0 0 53,48 11,5
29 23.10.2017 19:30 0 0 52,26 11,58
30 23.10.2017 19:00 0 0 52,77 11,21
31 23.10.2017 18:30 0 0 56,7 11,04
32 23.10.2017 18:00 0 0 57,48 10,89
33 23.10.2017 17:30 0 0 59,41 10,79
34 23.10.2017 17:00 0 0 61,64 10,23
35 23.10.2017 16:30 0 0 68,77 9,82
36 23.10.2017 16:00 0 0 76,8 10,23
37 23.10.2017 15:30 0 0 71,53 10,45
38 23.10.2017 15:00 0 0 77,83 10,57
39 23.10.2017 14:30 0 0 72,5 10,62
40 23.10.2017 14:00 0 0 73,97 10,84
41 23.10.2017 13:30 0 0 69,67 10,7
42 23.10.2017 13:00 0 0 77,24 10,31
43 23.10.2017 12:30 0 0 79,56 10,01
44 23.10.2017 12:00 0 0 82,2 10,09
45 23.10.2017 11:30 0 0 78,07 9,89
© 2011 Ministrstvo za kmetijstvo, gozdarstvo in prehrano. Vse pravice pridržane.